Time;durP1;ratioP1;P1;durP2;ratioP2;P2;SDS_P1;SDS_P2;PMS_P1;PMS_P2;Temp;Humidity;BMP_temperature;BMP_pressure;BME280_temperature;BME280_humidity;BME280_pressure;Samples;Min_cycle;Max_cycle;Signal;HPM_P1;HPM_P2
2022/08/16 00:02:54;;;;;;;3.90;2.92;;;;;;;;;;6148035;28;20062;-70
2022/08/16 00:05:56;;;;;;;3.22;2.70;;;;;;;;;;6151784;28;20043;-69
2022/08/16 00:08:57;;;;;;;5.30;3.15;;;;;;;;;;6149460;28;20135;-71
2022/08/16 00:12:00;;;;;;;4.00;2.58;;;;;;;;;;6147012;28;20120;-70
2022/08/16 00:15:06;;;;;;;4.00;3.08;;;;;;;;;;6149735;28;20055;-70
2022/08/16 00:18:09;;;;;;;5.95;2.95;;;;;;;;;;6147890;28;20330;-69
2022/08/16 00:21:11;;;;;;;4.95;3.05;;;;;;;;;;6150097;28;20047;-69
2022/08/16 00:24:15;;;;;;;3.50;2.95;;;;;;;;;;6149578;28;20223;-69
2022/08/16 00:27:18;;;;;;;3.75;2.95;;;;;;;;;;6151357;28;20065;-70
2022/08/16 00:30:22;;;;;;;5.57;3.03;;;;;;;;;;6150754;28;20364;-69
2022/08/16 00:33:23;;;;;;;4.50;2.70;;;;;;;;;;6148640;28;20051;-69
2022/08/16 00:36:25;;;;;;;4.53;2.65;;;;;;;;;;6151797;28;20043;-69
2022/08/16 00:39:26;;;;;;;4.43;3.13;;;;;;;;;;6152596;28;20299;-70
2022/08/16 00:42:31;;;;;;;4.53;3.25;;;;;;;;;;6159618;28;20070;-69
2022/08/16 00:45:36;;;;;;;3.42;2.63;;;;;;;;;;6159419;28;20094;-69
2022/08/16 00:48:38;;;;;;;4.78;2.95;;;;;;;;;;6159047;28;20066;-69
2022/08/16 00:51:40;;;;;;;5.82;2.75;;;;;;;;;;6157543;28;20393;-71
2022/08/16 00:54:42;;;;;;;5.05;3.55;;;;;;;;;;6160335;28;20059;-71
2022/08/16 00:57:46;;;;;;;6.15;2.78;;;;;;;;;;6153373;28;20055;-71
2022/08/16 01:00:48;;;;;;;4.18;2.90;;;;;;;;;;6152510;28;20105;-72
2022/08/16 01:03:53;;;;;;;5.47;2.88;;;;;;;;;;6158188;28;20242;-71
2022/08/16 01:06:55;;;;;;;4.38;2.90;;;;;;;;;;6153149;28;20051;-72
2022/08/16 01:09:57;;;;;;;4.20;3.20;;;;;;;;;;6155894;28;20051;-71
2022/08/16 01:13:03;;;;;;;3.13;2.60;;;;;;;;;;6152666;28;20065;-71
2022/08/16 01:16:08;;;;;;;4.55;2.90;;;;;;;;;;6149634;28;20058;-71
2022/08/16 01:19:13;;;;;;;3.95;3.15;;;;;;;;;;6147788;28;20047;-70
2022/08/16 01:22:19;;;;;;;4.97;3.72;;;;;;;;;;6144359;28;20059;-69
2022/08/16 01:25:25;;;;;;;4.90;3.42;;;;;;;;;;6142951;28;20061;-69
2022/08/16 01:28:28;;;;;;;3.97;3.28;;;;;;;;;;6146271;28;20058;-70
2022/08/16 01:31:29;;;;;;;4.05;3.30;;;;;;;;;;6148022;28;20342;-70
2022/08/16 01:34:31;;;;;;;5.35;3.42;;;;;;;;;;6146587;28;20047;-71
2022/08/16 01:37:40;;;;;;;3.80;3.33;;;;;;;;;;6150297;28;20055;-70
2022/08/16 01:40:43;;;;;;;6.55;3.78;;;;;;;;;;6146671;28;20058;-70
2022/08/16 01:43:45;;;;;;;6.05;3.58;;;;;;;;;;6150898;28;20286;-69
2022/08/16 01:46:48;;;;;;;5.60;3.40;;;;;;;;;;6149431;28;20055;-69
2022/08/16 01:49:50;;;;;;;5.28;3.45;;;;;;;;;;6148602;28;20059;-69
2022/08/16 01:52:52;;;;;;;5.38;3.22;;;;;;;;;;6147385;28;20094;-70
2022/08/16 01:55:55;;;;;;;5.55;3.80;;;;;;;;;;6146954;28;20242;-70
2022/08/16 01:58:58;;;;;;;4.60;3.47;;;;;;;;;;6148633;28;20070;-70
2022/08/16 02:02:00;;;;;;;4.50;3.50;;;;;;;;;;6146490;28;20054;-71
2022/08/16 02:05:02;;;;;;;4.57;3.30;;;;;;;;;;6144830;28;20058;-73
2022/08/16 02:08:04;;;;;;;5.40;3.53;;;;;;;;;;6155880;28;20329;-71
2022/08/16 02:11:08;;;;;;;5.40;4.03;;;;;;;;;;6149023;28;20055;-70
2022/08/16 02:14:10;;;;;;;4.25;3.40;;;;;;;;;;6150365;28;20054;-71
2022/08/16 02:17:12;;;;;;;4.30;3.42;;;;;;;;;;6155440;28;20330;-70
2022/08/16 02:20:15;;;;;;;8.48;3.53;;;;;;;;;;6149531;28;20847;-70
2022/08/16 02:23:17;;;;;;;8.43;3.63;;;;;;;;;;6151591;28;20059;-70
2022/08/16 02:26:20;;;;;;;5.20;3.13;;;;;;;;;;6156643;28;20057;-70
2022/08/16 02:29:22;;;;;;;4.70;3.17;;;;;;;;;;6154209;28;20047;-70
2022/08/16 02:32:23;;;;;;;4.80;3.15;;;;;;;;;;6158415;28;20242;-70
2022/08/16 02:35:26;;;;;;;4.50;3.22;;;;;;;;;;6155100;28;20047;-70
2022/08/16 02:38:29;;;;;;;3.47;3.15;;;;;;;;;;6160606;28;20066;-69
2022/08/16 02:41:32;;;;;;;6.28;3.45;;;;;;;;;;6157549;28;20094;-70
2022/08/16 02:44:34;;;;;;;4.38;3.40;;;;;;;;;;6160530;28;20063;-70
2022/08/16 02:47:35;;;;;;;4.05;3.65;;;;;;;;;;6157399;28;20078;-69
2022/08/16 02:50:37;;;;;;;5.13;3.22;;;;;;;;;;6155215;28;20048;-69
2022/08/16 02:53:42;;;;;;;4.40;3.55;;;;;;;;;;6150739;28;20079;-69
2022/08/16 02:56:45;;;;;;;5.47;3.95;;;;;;;;;;6153416;28;20103;-70
2022/08/16 02:59:47;;;;;;;;;;;;;;;;;;6147248;28;20055;-70
2022/08/16 03:02:48;;;;;;;4.60;3.20;;;;;;;;;;6152491;28;19949;-69
2022/08/16 03:05:50;;;;;;;4.93;3.53;;;;;;;;;;6149894;28;20254;-70
2022/08/16 03:08:52;;;;;;;3.72;3.35;;;;;;;;;;6149386;28;20050;-70
2022/08/16 03:11:55;;;;;;;6.32;3.67;;;;;;;;;;6149793;28;20119;-71
2022/08/16 03:14:57;;;;;;;4.25;3.85;;;;;;;;;;6151318;28;20066;-70
2022/08/16 03:18:00;;;;;;;4.45;3.60;;;;;;;;;;6149790;28;20246;-69
2022/08/16 03:21:02;;;;;;;4.55;3.80;;;;;;;;;;6148295;28;20064;-69
2022/08/16 03:24:04;;;;;;;10.57;4.03;;;;;;;;;;6156393;28;20070;-69
2022/08/16 03:27:07;;;;;;;5.13;3.60;;;;;;;;;;6150216;28;20406;-69
2022/08/16 03:30:11;;;;;;;3.55;3.22;;;;;;;;;;6150889;28;20048;-69
2022/08/16 03:33:13;;;;;;;4.70;4.18;;;;;;;;;;6153109;28;20200;-69
2022/08/16 03:36:14;;;;;;;4.10;3.67;;;;;;;;;;6148641;28;20067;-72
2022/08/16 03:39:16;;;;;;;7.82;3.80;;;;;;;;;;6153264;28;20147;-69
2022/08/16 03:42:19;;;;;;;4.07;3.70;;;;;;;;;;6149700;28;20385;-70
2022/08/16 03:45:21;;;;;;;5.75;3.65;;;;;;;;;;6150202;28;20342;-69
2022/08/16 03:48:25;;;;;;;3.58;2.90;;;;;;;;;;6151770;28;20048;-69
2022/08/16 03:51:27;;;;;;;5.28;4.18;;;;;;;;;;6150657;28;20098;-69
2022/08/16 03:54:28;;;;;;;3.55;3.22;;;;;;;;;;6150833;28;20227;-71
2022/08/16 03:57:32;;;;;;;7.00;3.42;;;;;;;;;;6148791;28;20385;-71
2022/08/16 04:00:34;;;;;;;4.95;3.60;;;;;;;;;;6150642;28;20055;-72
2022/08/16 04:03:35;;;;;;;5.70;3.55;;;;;;;;;;6149660;28;20066;-71
2022/08/16 04:06:37;;;;;;;3.97;3.45;;;;;;;;;;6147876;28;20048;-72
2022/08/16 04:09:39;;;;;;;4.95;3.63;;;;;;;;;;6150704;28;20118;-71
2022/08/16 04:12:42;;;;;;;4.10;3.70;;;;;;;;;;6151198;28;20054;-70
2022/08/16 04:15:43;;;;;;;;;;;;;;;;;;6150568;28;20326;-69
2022/08/16 04:18:45;;;;;;;7.00;3.95;;;;;;;;;;6148824;28;19966;-70
2022/08/16 04:21:47;;;;;;;9.90;4.40;;;;;;;;;;6148086;28;20047;-70
2022/08/16 04:24:48;;;;;;;5.28;3.92;;;;;;;;;;6146183;28;20238;-71
2022/08/16 04:27:51;;;;;;;5.07;3.50;;;;;;;;;;6147913;28;20070;-68
2022/08/16 04:30:53;;;;;;;5.40;3.63;;;;;;;;;;6149194;28;20330;-69
2022/08/16 04:33:58;;;;;;;5.13;3.92;;;;;;;;;;6148874;28;20413;-69
2022/08/16 04:36:59;;;;;;;4.80;3.40;;;;;;;;;;6149635;28;20227;-69
2022/08/16 04:40:01;;;;;;;4.03;3.50;;;;;;;;;;6148357;28;20051;-69
2022/08/16 04:43:04;;;;;;;5.70;3.80;;;;;;;;;;6147532;28;20043;-69
2022/08/16 04:46:06;;;;;;;4.88;3.38;;;;;;;;;;6146755;28;20058;-70
2022/08/16 04:49:10;;;;;;;6.45;4.07;;;;;;;;;;6146125;28;20106;-70
2022/08/16 04:52:12;;;;;;;6.50;3.92;;;;;;;;;;6148068;28;20074;-69
2022/08/16 04:55:16;;;;;;;4.45;4.03;;;;;;;;;;6149959;28;20118;-70
2022/08/16 04:58:19;;;;;;;6.93;4.28;;;;;;;;;;6148912;28;20052;-69
2022/08/16 05:01:21;;;;;;;6.05;4.35;;;;;;;;;;6146637;28;20056;-69
2022/08/16 05:04:23;;;;;;;5.80;4.32;;;;;;;;;;6148657;28;20061;-70
2022/08/16 05:07:24;;;;;;;8.70;4.35;;;;;;;;;;6148245;28;20103;-69
2022/08/16 05:10:27;;;;;;;5.03;4.10;;;;;;;;;;6148949;28;20606;-69
2022/08/16 05:13:30;;;;;;;5.32;3.80;;;;;;;;;;6148722;28;20070;-70
2022/08/16 05:16:32;;;;;;;4.70;3.45;;;;;;;;;;6150033;28;20108;-69
2022/08/16 05:19:34;;;;;;;9.77;4.65;;;;;;;;;;6146528;28;20058;-69
2022/08/16 05:22:37;;;;;;;5.97;3.80;;;;;;;;;;6146730;28;20051;-69
2022/08/16 05:25:39;;;;;;;5.45;4.10;;;;;;;;;;6147400;28;20059;-69
2022/08/16 05:28:42;;;;;;;5.10;4.47;;;;;;;;;;6147628;28;20278;-69
2022/08/16 05:31:43;;;;;;;6.97;4.18;;;;;;;;;;6148187;28;20047;-70
2022/08/16 05:34:45;;;;;;;6.97;4.47;;;;;;;;;;6145283;28;20049;-71
2022/08/16 05:37:47;;;;;;;7.40;4.18;;;;;;;;;;6146988;28;20043;-69
2022/08/16 05:40:48;;;;;;;7.18;5.10;;;;;;;;;;6146584;28;20062;-71
2022/08/16 05:43:51;;;;;;;5.85;4.20;;;;;;;;;;6145348;28;20246;-65
2022/08/16 05:46:55;;;;;;;5.93;4.00;;;;;;;;;;6146159;28;20099;-72
2022/08/16 05:49:57;;;;;;;8.73;5.05;;;;;;;;;;6147811;28;20055;-69
2022/08/16 05:52:58;;;;;;;6.18;4.97;;;;;;;;;;6148042;28;20047;-69
2022/08/16 05:56:00;;;;;;;7.10;5.05;;;;;;;;;;6146228;28;20046;-69
2022/08/16 05:59:03;;;;;;;7.53;4.43;;;;;;;;;;6145177;28;20056;-69
2022/08/16 06:02:05;;;;;;;8.20;4.60;;;;;;;;;;6147545;28;20054;-72
2022/08/16 06:05:07;;;;;;;5.55;4.95;;;;;;;;;;6147600;28;20051;-71
2022/08/16 06:08:09;;;;;;;6.18;4.53;;;;;;;;;;6149641;28;20100;-70
2022/08/16 06:11:11;;;;;;;5.63;4.40;;;;;;;;;;6147350;28;20047;-69
2022/08/16 06:14:14;;;;;;;5.32;4.20;;;;;;;;;;6146163;28;20058;-71
2022/08/16 06:17:16;;;;;;;;;;;;;;;;;;6142992;28;20047;-72
2022/08/16 06:20:20;;;;;;;6.55;5.00;;;;;;;;;;6145379;28;19965;-71
2022/08/16 06:23:22;;;;;;;6.93;5.45;;;;;;;;;;6147013;28;20325;-70
2022/08/16 06:26:24;;;;;;;6.97;5.20;;;;;;;;;;6147222;28;20122;-69
2022/08/16 06:29:27;;;;;;;5.43;4.45;;;;;;;;;;6143388;28;20066;-69
2022/08/16 06:32:29;;;;;;;7.68;5.22;;;;;;;;;;6144879;28;20063;-69
2022/08/16 06:35:31;;;;;;;6.20;4.85;;;;;;;;;;6145482;28;20061;-69
2022/08/16 06:38:32;;;;;;;11.63;4.80;;;;;;;;;;6145868;28;20074;-69
2022/08/16 06:41:34;;;;;;;6.70;5.53;;;;;;;;;;6145741;28;20177;-69
2022/08/16 06:44:37;;;;;;;6.10;4.72;;;;;;;;;;6146540;28;20075;-70
2022/08/16 06:47:39;;;;;;;9.27;5.47;;;;;;;;;;6146187;28;20058;-71
2022/08/16 06:50:41;;;;;;;6.05;4.63;;;;;;;;;;6147297;28;20405;-72
2022/08/16 06:53:42;;;;;;;7.10;4.95;;;;;;;;;;6148743;28;20047;-71
2022/08/16 06:56:44;;;;;;;7.90;5.25;;;;;;;;;;6147630;28;20054;-72
2022/08/16 06:59:47;;;;;;;5.80;4.78;;;;;;;;;;6145670;28;20827;-71
2022/08/16 07:02:49;;;;;;;6.50;4.63;;;;;;;;;;6147970;28;20063;-72
2022/08/16 07:05:51;;;;;;;6.10;4.75;;;;;;;;;;6143165;28;20292;-71
2022/08/16 07:08:52;;;;;;;7.43;4.28;;;;;;;;;;6148333;28;20063;-71
2022/08/16 07:11:54;;;;;;;9.18;4.93;;;;;;;;;;6153820;28;20051;-71
2022/08/16 07:14:59;;;;;;;6.70;4.60;;;;;;;;;;6146910;28;20054;-70
2022/08/16 07:18:00;;;;;;;8.35;4.93;;;;;;;;;;6147877;28;20058;-70
2022/08/16 07:21:02;;;;;;;8.38;5.53;;;;;;;;;;6151002;28;20055;-70
2022/08/16 07:24:06;;;;;;;7.00;4.65;;;;;;;;;;6148514;28;20331;-70
2022/08/16 07:27:08;;;;;;;6.70;4.30;;;;;;;;;;6151376;28;20059;-70
2022/08/16 07:30:13;;;;;;;5.95;4.43;;;;;;;;;;6154375;28;20362;-70
2022/08/16 07:33:16;;;;;;;7.97;5.00;;;;;;;;;;6151201;28;20063;-71
2022/08/16 07:36:18;;;;;;;7.72;5.03;;;;;;;;;;6150329;28;20079;-69
2022/08/16 07:39:20;;;;;;;7.82;5.13;;;;;;;;;;6149473;28;20286;-70
2022/08/16 07:42:22;;;;;;;9.88;5.30;;;;;;;;;;6151489;28;20066;-70
2022/08/16 07:45:25;;;;;;;7.00;6.00;;;;;;;;;;6150410;28;20059;-70
2022/08/16 07:48:26;;;;;;;5.93;4.72;;;;;;;;;;6151273;28;20138;-70
2022/08/16 07:51:30;;;;;;;8.05;4.53;;;;;;;;;;6147745;28;20068;-70
2022/08/16 07:54:32;;;;;;;7.72;6.07;;;;;;;;;;6150056;28;20293;-71
2022/08/16 07:57:34;;;;;;;7.63;5.20;;;;;;;;;;6149424;28;20059;-70
2022/08/16 08:00:38;;;;;;;5.80;4.65;;;;;;;;;;6151545;28;20048;-70
2022/08/16 08:03:42;;;;;;;11.95;6.47;;;;;;;;;;6150070;28;20242;-70
2022/08/16 08:06:44;;;;;;;6.30;5.00;;;;;;;;;;6149722;28;20242;-72
2022/08/16 08:09:46;;;;;;;9.60;5.45;;;;;;;;;;6154441;28;20255;-70
2022/08/16 08:12:49;;;;;;;8.05;5.85;;;;;;;;;;6149764;28;20056;-70
2022/08/16 08:15:52;;;;;;;7.75;5.57;;;;;;;;;;6148275;28;20060;-70
2022/08/16 08:18:54;;;;;;;7.55;5.40;;;;;;;;;;6147401;28;20246;-70
2022/08/16 08:21:55;;;;;;;8.20;4.72;;;;;;;;;;6148197;28;20051;-70
2022/08/16 08:24:57;;;;;;;4.57;4.15;;;;;;;;;;6149104;28;20346;-71
2022/08/16 08:27:59;;;;;;;6.18;4.80;;;;;;;;;;6150102;28;20098;-71
2022/08/16 08:31:02;;;;;;;8.18;4.72;;;;;;;;;;6150344;28;20098;-70
2022/08/16 08:34:06;;;;;;;5.88;4.60;;;;;;;;;;6149273;28;20060;-70
2022/08/16 08:37:07;;;;;;;6.13;4.82;;;;;;;;;;6148484;28;20071;-70
2022/08/16 08:40:11;;;;;;;8.90;4.60;;;;;;;;;;6148092;28;20047;-70
2022/08/16 08:43:13;;;;;;;6.63;4.50;;;;;;;;;;6151550;28;20066;-70
2022/08/16 08:46:16;;;;;;;8.43;5.00;;;;;;;;;;6148940;28;20047;-71
2022/08/16 08:49:17;;;;;;;4.53;3.78;;;;;;;;;;6147306;28;20243;-72
2022/08/16 08:52:19;;;;;;;5.37;4.40;;;;;;;;;;6149301;28;20180;-70
2022/08/16 08:55:21;;;;;;;6.07;3.90;;;;;;;;;;6150156;28;20442;-71
2022/08/16 08:58:23;;;;;;;8.70;5.50;;;;;;;;;;6146589;28;20089;-71
2022/08/16 09:01:29;;;;;;;6.20;5.07;;;;;;;;;;6148159;28;20346;-71
2022/08/16 09:04:30;;;;;;;7.22;5.32;;;;;;;;;;6147259;28;20122;-70
2022/08/16 09:07:32;;;;;;;8.77;4.93;;;;;;;;;;6147692;28;20058;-70
2022/08/16 09:10:34;;;;;;;4.57;4.17;;;;;;;;;;6143725;28;20470;-72
2022/08/16 09:13:36;;;;;;;9.85;4.50;;;;;;;;;;6145633;28;20327;-71
2022/08/16 09:16:39;;;;;;;5.45;4.90;;;;;;;;;;6146453;28;20107;-70
2022/08/16 09:19:41;;;;;;;6.18;4.70;;;;;;;;;;6145956;28;20062;-70
2022/08/16 09:22:42;;;;;;;4.90;4.40;;;;;;;;;;6147055;28;20101;-71
2022/08/16 09:25:44;;;;;;;4.15;3.55;;;;;;;;;;6146558;28;20082;-72
2022/08/16 09:28:47;;;;;;;6.07;3.90;;;;;;;;;;6149829;28;20054;-72
2022/08/16 09:31:50;;;;;;;6.03;3.63;;;;;;;;;;6148063;28;20230;-70
2022/08/16 09:34:52;;;;;;;3.80;3.40;;;;;;;;;;6143367;28;20071;-70
2022/08/16 09:37:55;;;;;;;3.50;3.20;;;;;;;;;;6147387;28;20044;-71
2022/08/16 09:40:57;;;;;;;4.72;2.83;;;;;;;;;;6146059;28;20055;-71
2022/08/16 09:43:59;;;;;;;;;;;;;;;;;;6146773;28;20074;-71
2022/08/16 09:47:02;;;;;;;4.43;4.10;;;;;;;;;;6147338;28;19925;-71
2022/08/16 09:50:05;;;;;;;5.47;3.17;;;;;;;;;;6144908;28;20518;-71
2022/08/16 09:53:09;;;;;;;3.10;2.80;;;;;;;;;;6149978;28;20062;-71
2022/08/16 09:56:24;;;;;;;3.90;2.65;;;;;;;;;;6142312;28;20048;-71
2022/08/16 09:59:25;;;;;;;3.75;2.70;;;;;;;;;;6145939;28;20052;-71
2022/08/16 10:02:28;;;;;;;;;;;;;;;;;;6147375;28;20059;-71
2022/08/16 10:05:31;;;;;;;3.97;2.35;;;;;;;;;;6148038;28;19924;-71
2022/08/16 10:08:33;;;;;;;4.68;2.50;;;;;;;;;;6145048;28;20114;-71
2022/08/16 10:14:54;;;;;;;3.67;2.65;;;;;;;;;;6147964;28;20312;-72
2022/08/16 10:17:57;;;;;;;2.67;2.42;;;;;;;;;;6149326;28;20055;-71
2022/08/16 10:20:59;;;;;;;4.50;2.70;;;;;;;;;;6152596;28;20047;-71
2022/08/16 10:24:02;;;;;;;2.95;2.33;;;;;;;;;;6150341;28;20062;-71
2022/08/16 10:27:05;;;;;;;3.05;2.50;;;;;;;;;;6147526;28;20118;-72
2022/08/16 10:30:08;;;;;;;5.95;2.70;;;;;;;;;;6147686;28;20047;-71
2022/08/16 10:33:13;;;;;;;5.30;2.42;;;;;;;;;;6146721;28;20048;-71
2022/08/16 10:36:14;;;;;;;7.38;2.30;;;;;;;;;;6144586;28;20338;-70
2022/08/16 10:39:16;;;;;;;3.33;2.25;;;;;;;;;;6142792;28;20046;-71
2022/08/16 10:42:18;;;;;;;4.22;2.20;;;;;;;;;;6146163;28;20063;-71
2022/08/16 10:45:20;;;;;;;4.15;2.30;;;;;;;;;;6145252;28;20234;-72
2022/08/16 10:48:23;;;;;;;3.88;2.35;;;;;;;;;;6146357;28;20047;-72
2022/08/16 10:51:24;;;;;;;5.15;2.65;;;;;;;;;;6145561;28;20174;-71
2022/08/16 10:54:26;;;;;;;6.22;2.40;;;;;;;;;;6150381;28;20135;-71
2022/08/16 10:57:30;;;;;;;3.85;2.53;;;;;;;;;;6149844;28;20107;-71
2022/08/16 11:00:32;;;;;;;8.23;2.55;;;;;;;;;;6147656;28;20059;-71
2022/08/16 11:03:36;;;;;;;4.45;2.30;;;;;;;;;;6153128;28;20063;-71
2022/08/16 11:06:37;;;;;;;3.58;2.50;;;;;;;;;;6150629;28;20118;-71
2022/08/16 11:09:40;;;;;;;3.65;2.20;;;;;;;;;;6150449;28;20042;-71
2022/08/16 11:12:41;;;;;;;4.22;2.25;;;;;;;;;;6149882;28;20098;-71
2022/08/16 11:15:43;;;;;;;7.18;2.28;;;;;;;;;;6150132;28;20056;-71
2022/08/16 11:18:46;;;;;;;3.05;2.53;;;;;;;;;;6148165;28;20051;-71
2022/08/16 11:21:48;;;;;;;3.42;2.50;;;;;;;;;;6147380;28;20043;-71
2022/08/16 11:24:50;;;;;;;3.22;2.10;;;;;;;;;;6149878;28;20044;-71
2022/08/16 11:27:53;;;;;;;4.57;2.80;;;;;;;;;;6149340;28;20047;-71
2022/08/16 11:30:55;;;;;;;5.38;2.42;;;;;;;;;;6149864;28;20118;-71
2022/08/16 11:33:58;;;;;;;5.28;2.30;;;;;;;;;;6149109;28;20401;-72
2022/08/16 11:37:00;;;;;;;3.70;2.30;;;;;;;;;;6148728;28;20054;-70
2022/08/16 11:40:02;;;;;;;5.50;2.90;;;;;;;;;;6150703;28;20056;-71
2022/08/16 11:43:05;;;;;;;2.78;2.47;;;;;;;;;;6148492;28;20059;-71
2022/08/16 11:46:09;;;;;;;4.20;2.58;;;;;;;;;;6146360;28;20070;-71
2022/08/16 11:49:12;;;;;;;5.53;2.85;;;;;;;;;;6148278;28;20118;-71
2022/08/16 11:52:16;;;;;;;4.30;2.70;;;;;;;;;;6148263;28;20118;-71
2022/08/16 11:55:18;;;;;;;3.33;2.55;;;;;;;;;;6150675;28;20133;-71
2022/08/16 11:58:20;;;;;;;4.30;2.63;;;;;;;;;;6148027;28;20067;-71
2022/08/16 12:01:21;;;;;;;2.75;2.40;;;;;;;;;;6148392;28;20047;-72
2022/08/16 12:04:24;;;;;;;4.07;2.72;;;;;;;;;;6148567;28;20060;-71
2022/08/16 12:07:26;;;;;;;4.18;2.58;;;;;;;;;;6150292;28;20062;-71
2022/08/16 12:10:28;;;;;;;4.05;3.00;;;;;;;;;;6150778;28;20051;-72
2022/08/16 12:13:30;;;;;;;4.32;2.78;;;;;;;;;;6150075;28;20048;-71
2022/08/16 12:16:32;;;;;;;5.78;2.90;;;;;;;;;;6150021;28;20334;-71
2022/08/16 12:19:35;;;;;;;3.70;2.70;;;;;;;;;;6145887;28;20140;-71
2022/08/16 12:22:37;;;;;;;3.50;2.42;;;;;;;;;;6148389;28;20066;-71
2022/08/16 12:25:39;;;;;;;2.85;2.40;;;;;;;;;;6150013;28;20059;-71
2022/08/16 12:28:40;;;;;;;3.72;2.90;;;;;;;;;;6148053;28;20044;-71
2022/08/16 12:31:42;;;;;;;4.65;2.53;;;;;;;;;;6146881;28;20052;-71
2022/08/16 12:34:46;;;;;;;2.80;2.50;;;;;;;;;;6148950;28;20060;-71
2022/08/16 12:37:48;;;;;;;3.05;2.75;;;;;;;;;;6147558;28;20044;-71
2022/08/16 12:40:51;;;;;;;4.45;3.05;;;;;;;;;;6148065;28;20055;-71
2022/08/16 12:43:53;;;;;;;5.22;2.58;;;;;;;;;;6148652;28;20798;-71
2022/08/16 12:50:16;;;;;;;3.88;2.70;;;;;;;;;;6150320;28;20059;-71
2022/08/16 12:53:19;;;;;;;5.03;3.03;;;;;;;;;;6148531;28;21423;-71
2022/08/16 12:56:24;;;;;;;3.20;2.50;;;;;;;;;;6148855;28;20062;-72
2022/08/16 12:59:26;;;;;;;4.43;2.60;;;;;;;;;;6146953;28;20059;-71
2022/08/16 13:02:27;;;;;;;6.07;2.88;;;;;;;;;;6145896;28;20062;-71
2022/08/16 13:05:31;;;;;;;4.15;2.78;;;;;;;;;;6148192;28;20055;-71
2022/08/16 13:08:33;;;;;;;3.70;2.65;;;;;;;;;;6149640;28;20056;-71
2022/08/16 13:11:44;;;;;;;4.38;3.08;;;;;;;;;;6147196;28;20329;-71
2022/08/16 13:14:47;;;;;;;7.15;2.90;;;;;;;;;;6147813;28;20047;-71
2022/08/16 13:17:49;;;;;;;5.10;3.05;;;;;;;;;;6145230;28;20059;-72
2022/08/16 13:20:52;;;;;;;3.83;2.90;;;;;;;;;;6145815;28;20058;-71
2022/08/16 13:23:54;;;;;;;3.20;2.65;;;;;;;;;;6145944;28;20058;-71
2022/08/16 13:26:55;;;;;;;4.43;2.88;;;;;;;;;;6146583;28;20055;-72
2022/08/16 13:29:57;;;;;;;5.60;2.53;;;;;;;;;;6144440;28;20058;-71
2022/08/16 13:32:59;;;;;;;7.30;2.95;;;;;;;;;;6144121;28;20047;-71
2022/08/16 13:36:04;;;;;;;4.78;2.90;;;;;;;;;;6149054;28;20051;-70
2022/08/16 13:39:06;;;;;;;4.57;2.60;;;;;;;;;;6145748;28;20063;-71
2022/08/16 13:42:10;;;;;;;4.82;3.00;;;;;;;;;;6147266;28;20046;-71
2022/08/16 13:45:13;;;;;;;3.90;2.70;;;;;;;;;;6145446;28;20119;-71
2022/08/16 13:48:15;;;;;;;3.20;2.65;;;;;;;;;;6147054;28;20066;-71
2022/08/16 13:51:19;;;;;;;4.32;2.80;;;;;;;;;;6142952;28;20046;-71
2022/08/16 13:54:21;;;;;;;5.45;2.70;;;;;;;;;;6147551;28;20048;-71
2022/08/16 13:57:22;;;;;;;5.63;2.90;;;;;;;;;;6146479;28;20330;-71
2022/08/16 14:00:24;;;;;;;3.65;2.70;;;;;;;;;;6145638;28;20047;-70
2022/08/16 14:03:26;;;;;;;4.95;2.63;;;;;;;;;;6148202;28;20039;-71
2022/08/16 14:06:30;;;;;;;6.80;3.10;;;;;;;;;;6149668;28;20059;-71
2022/08/16 14:09:33;;;;;;;4.10;2.45;;;;;;;;;;6151296;28;20048;-72
2022/08/16 14:12:36;;;;;;;5.18;2.72;;;;;;;;;;6148364;28;20055;-71
2022/08/16 14:15:37;;;;;;;5.25;3.08;;;;;;;;;;6147738;28;20047;-72
2022/08/16 14:18:39;;;;;;;4.38;3.13;;;;;;;;;;6150525;28;20047;-71
2022/08/16 14:21:42;;;;;;;5.00;2.63;;;;;;;;;;6148315;28;20249;-71
2022/08/16 14:24:44;;;;;;;3.42;2.63;;;;;;;;;;6148821;28;20051;-72
2022/08/16 14:27:46;;;;;;;9.48;3.60;;;;;;;;;;6150684;28;20345;-71
2022/08/16 14:30:48;;;;;;;5.50;2.92;;;;;;;;;;6153374;28;20330;-71
2022/08/16 14:33:50;;;;;;;4.22;3.00;;;;;;;;;;6156272;28;20106;-71
2022/08/16 14:36:53;;;;;;;5.47;3.03;;;;;;;;;;6153009;28;20290;-71
2022/08/16 14:39:54;;;;;;;4.60;2.78;;;;;;;;;;6155012;28;20326;-72
2022/08/16 14:42:56;;;;;;;2.60;2.40;;;;;;;;;;6153114;28;20065;-72
2022/08/16 14:45:58;;;;;;;6.20;2.63;;;;;;;;;;6149802;28;20362;-71
2022/08/16 14:49:00;;;;;;;5.07;2.95;;;;;;;;;;6152162;28;20055;-71
2022/08/16 14:52:05;;;;;;;3.75;2.72;;;;;;;;;;6153900;28;20349;-71
2022/08/16 14:55:08;;;;;;;4.28;2.80;;;;;;;;;;6154352;28;20062;-72
2022/08/16 14:58:10;;;;;;;4.60;3.10;;;;;;;;;;6154736;28;20055;-71
2022/08/16 15:01:11;;;;;;;;;;;;;;;;;;6152760;28;20059;-71
2022/08/16 15:04:13;;;;;;;4.45;2.42;;;;;;;;;;6151352;28;19926;-71
2022/08/16 15:07:16;;;;;;;;;;;;;;;;;;6153514;28;20764;-70
2022/08/16 15:10:18;;;;;;;6.78;3.00;;;;;;;;;;6151741;28;19926;-72
2022/08/16 15:13:21;;;;;;;3.58;2.63;;;;;;;;;;6150356;28;20047;-71
2022/08/16 15:16:23;;;;;;;8.77;2.70;;;;;;;;;;6149962;28;20061;-71
2022/08/16 15:19:25;;;;;;;5.45;3.05;;;;;;;;;;6151348;28;20098;-70
2022/08/16 15:22:30;;;;;;;3.80;2.80;;;;;;;;;;6150121;28;20337;-71
2022/08/16 15:25:34;;;;;;;6.35;2.95;;;;;;;;;;6150558;28;20223;-70
2022/08/16 15:28:36;;;;;;;7.22;3.00;;;;;;;;;;6150206;28;20063;-71
2022/08/16 15:31:40;;;;;;;3.78;2.80;;;;;;;;;;6151575;28;20047;-71
2022/08/16 15:34:43;;;;;;;5.30;2.95;;;;;;;;;;6150059;28;20047;-72
2022/08/16 15:37:47;;;;;;;6.32;3.00;;;;;;;;;;6150023;28;20226;-70
2022/08/16 15:40:49;;;;;;;8.70;3.10;;;;;;;;;;6149825;28;20122;-71
2022/08/16 15:43:50;;;;;;;7.18;3.72;;;;;;;;;;6150964;28;20123;-71
2022/08/16 15:46:54;;;;;;;6.68;2.65;;;;;;;;;;6148411;28;20058;-71
2022/08/16 15:49:56;;;;;;;5.15;3.25;;;;;;;;;;6151932;28;20098;-71
2022/08/16 15:53:01;;;;;;;7.22;3.53;;;;;;;;;;6151946;28;20061;-72
2022/08/16 15:56:04;;;;;;;6.50;3.05;;;;;;;;;;6152192;28;20274;-70
2022/08/16 15:59:06;;;;;;;5.93;2.92;;;;;;;;;;6148551;28;20098;-70
2022/08/16 16:02:07;;;;;;;6.32;2.92;;;;;;;;;;6148848;28;20322;-71
2022/08/16 16:05:09;;;;;;;6.35;2.90;;;;;;;;;;6150438;28;20246;-70
2022/08/16 16:08:13;;;;;;;4.60;2.83;;;;;;;;;;6149595;28;20050;-71
2022/08/16 16:11:15;;;;;;;4.72;2.90;;;;;;;;;;6150532;28;20338;-71
2022/08/16 16:14:17;;;;;;;8.10;3.13;;;;;;;;;;6153423;28;20063;-71
2022/08/16 16:17:19;;;;;;;5.25;3.03;;;;;;;;;;6151046;28;20146;-72
2022/08/16 16:20:22;;;;;;;8.15;3.08;;;;;;;;;;6147699;28;20055;-71
2022/08/16 16:23:28;;;;;;;3.92;2.70;;;;;;;;;;6146700;28;20051;-70
2022/08/16 16:26:29;;;;;;;5.80;3.28;;;;;;;;;;6148598;28;20083;-70
2022/08/16 16:29:31;;;;;;;3.75;3.10;;;;;;;;;;6147556;28;20108;-70
2022/08/16 16:32:33;;;;;;;4.13;3.30;;;;;;;;;;6154178;28;20814;-71
2022/08/16 16:35:36;;;;;;;9.47;3.00;;;;;;;;;;6144725;28;20067;-71
2022/08/16 16:38:39;;;;;;;7.10;3.20;;;;;;;;;;6145438;28;20601;-71
2022/08/16 16:41:40;;;;;;;6.18;3.55;;;;;;;;;;6148706;28;20075;-71
2022/08/16 16:44:42;;;;;;;4.50;2.63;;;;;;;;;;6147529;28;20067;-70
2022/08/16 16:47:44;;;;;;;5.07;3.10;;;;;;;;;;6147380;28;20107;-71
2022/08/16 16:50:46;;;;;;;4.97;3.08;;;;;;;;;;6145971;28;20051;-70
2022/08/16 16:53:51;;;;;;;8.20;3.10;;;;;;;;;;6144485;28;20290;-70
2022/08/16 16:56:52;;;;;;;5.03;2.83;;;;;;;;;;6147618;28;20058;-71
2022/08/16 16:59:55;;;;;;;6.33;2.97;;;;;;;;;;6146605;28;20064;-70
2022/08/16 17:02:57;;;;;;;5.38;2.80;;;;;;;;;;6149152;28;20474;-71
2022/08/16 17:05:58;;;;;;;6.72;3.22;;;;;;;;;;6146450;28;20051;-70
2022/08/16 17:09:05;;;;;;;7.88;3.45;;;;;;;;;;6148666;28;20119;-70
2022/08/16 17:12:07;;;;;;;6.47;2.92;;;;;;;;;;6144018;28;20051;-71
2022/08/16 17:15:10;;;;;;;7.03;3.30;;;;;;;;;;6148388;28;20047;-72
2022/08/16 17:18:11;;;;;;;4.25;3.40;;;;;;;;;;6147984;28;20075;-71
2022/08/16 17:21:13;;;;;;;6.37;3.00;;;;;;;;;;6146084;28;20082;-70
2022/08/16 17:24:16;;;;;;;8.90;3.40;;;;;;;;;;6150000;28;20047;-70
2022/08/16 17:27:19;;;;;;;5.05;3.55;;;;;;;;;;6148333;28;20059;-70
2022/08/16 17:30:21;;;;;;;;;;;;;;;;;;6150398;28;20086;-71
2022/08/16 17:33:23;;;;;;;7.05;3.17;;;;;;;;;;6147894;28;19928;-71
2022/08/16 17:36:25;;;;;;;7.10;3.50;;;;;;;;;;6147304;28;20058;-70
2022/08/16 17:39:29;;;;;;;10.38;3.88;;;;;;;;;;6144108;28;20062;-71
2022/08/16 17:42:30;;;;;;;6.13;3.75;;;;;;;;;;6141552;28;20342;-71
2022/08/16 17:45:33;;;;;;;7.53;3.63;;;;;;;;;;6142050;28;20274;-72
2022/08/16 17:48:36;;;;;;;3.92;3.25;;;;;;;;;;6144802;28;20220;-70
2022/08/16 17:51:39;;;;;;;5.00;2.90;;;;;;;;;;6141476;28;20074;-71
2022/08/16 17:54:43;;;;;;;7.50;3.10;;;;;;;;;;6141529;28;20066;-71
2022/08/16 17:57:44;;;;;;;6.28;3.85;;;;;;;;;;6148368;28;20059;-70
2022/08/16 18:00:47;;;;;;;6.35;2.95;;;;;;;;;;6145700;28;20051;-72
2022/08/16 18:03:49;;;;;;;7.82;3.17;;;;;;;;;;6145718;28;20051;-70
2022/08/16 18:06:53;;;;;;;3.97;2.80;;;;;;;;;;6146131;28;20334;-70
2022/08/16 18:09:56;;;;;;;4.90;3.05;;;;;;;;;;6146675;28;20060;-70
2022/08/16 18:12:57;;;;;;;8.60;3.13;;;;;;;;;;6147013;28;20047;-70
2022/08/16 18:15:59;;;;;;;8.85;3.40;;;;;;;;;;6144805;28;20059;-70
2022/08/16 18:19:01;;;;;;;5.18;3.00;;;;;;;;;;6149304;28;20063;-70
2022/08/16 18:22:17;;;;;;;4.25;2.85;;;;;;;;;;6148075;28;20047;-70
2022/08/16 18:25:20;;;;;;;5.43;3.10;;;;;;;;;;6145375;28;20122;-70